createdAt,value
2018-03-07T00:00:20.316Z,48.57
2018-03-07T00:02:47.621Z,42.53
2018-03-07T00:05:15.923Z,39.70
2018-03-07T00:07:43.700Z,40.77
2018-03-07T00:10:10.983Z,44.27
2018-03-07T00:12:51.450Z,36.90
2018-03-07T00:15:18.740Z,39.87
2018-03-07T00:17:46.507Z,40.90
2018-03-07T00:20:13.876Z,45.60
2018-03-07T00:22:41.188Z,39.80
2018-03-07T00:25:08.630Z,40.50
2018-03-07T00:27:35.938Z,38.77
2018-03-07T00:30:03.326Z,41.33
2018-03-07T00:32:32.608Z,45.10
2018-03-07T00:35:12.090Z,41.07
2018-03-07T00:37:39.450Z,42.83
2018-03-07T00:40:06.770Z,44.13
2018-03-07T00:42:51.834Z,45.37
2018-03-07T00:45:19.218Z,38.77
2018-03-07T00:47:47.267Z,41.83
2018-03-07T00:50:15.625Z,45.67
2018-03-07T00:52:42.956Z,41.57
2018-03-07T00:55:10.324Z,45.67
2018-03-07T01:00:28.408Z,47.37
2018-03-07T01:02:55.747Z,46.70
2018-03-07T01:05:23.086Z,43.10
2018-03-07T01:07:50.800Z,41.87
2018-03-07T01:10:18.249Z,44.53
2018-03-07T01:12:46.547Z,46.20
2018-03-07T01:15:13.890Z,39.60
2018-03-07T01:17:41.316Z,39.43
2018-03-07T01:20:08.730Z,37.17
2018-03-07T01:22:36.023Z,41.73
2018-03-07T01:25:03.374Z,41.37
2018-03-07T01:27:31.102Z,41.10
2018-03-07T01:29:58.430Z,39.50
2018-03-07T01:32:25.944Z,38.60
2018-03-07T01:34:53.953Z,37.90
2018-03-07T01:37:22.250Z,39.03
2018-03-07T01:39:49.587Z,39.00
2018-03-07T01:42:21.151Z,38.43
2018-03-07T01:44:48.489Z,39.13
2018-03-07T01:47:15.845Z,42.47
2018-03-07T01:49:43.237Z,43.47
2018-03-07T01:52:17.943Z,36.80
2018-03-07T01:54:45.331Z,42.50
2018-03-07T01:57:12.665Z,34.67
2018-03-07T01:59:39.978Z,43.87
2018-03-07T02:02:07.445Z,37.40
2018-03-07T02:04:34.834Z,39.70
2018-03-07T02:07:02.206Z,41.97
2018-03-07T02:09:29.931Z,38.33
2018-03-07T02:11:57.295Z,43.47
2018-03-07T02:14:24.602Z,45.30
2018-03-07T02:16:52.421Z,36.23
2018-03-07T02:19:19.750Z,36.83
2018-03-07T02:21:47.124Z,44.07
2018-03-07T02:24:19.600Z,48.43
2018-03-07T02:26:46.932Z,38.57
2018-03-07T02:29:16.309Z,35.53
2018-03-07T02:31:44.027Z,39.93
2018-03-07T02:34:11.375Z,36.40
2018-03-07T02:36:38.723Z,37.70
2018-03-07T02:39:11.787Z,42.27
2018-03-07T02:41:39.127Z,34.60
2018-03-07T02:44:06.458Z,46.23
2018-03-07T02:46:33.828Z,43.10
2018-03-07T02:49:01.538Z,35.13
2018-03-07T02:51:28.842Z,40.77
2018-03-07T02:53:56.249Z,34.43
2018-03-07T02:56:23.551Z,40.73
2018-03-07T02:58:50.870Z,34.20
2018-03-07T03:01:18.241Z,38.17
2018-03-07T03:03:45.607Z,41.20
2018-03-07T03:06:12.956Z,40.30
2018-03-07T03:08:40.249Z,47.00
2018-03-07T03:11:07.560Z,38.03
2018-03-07T03:13:34.865Z,46.07
2018-03-07T03:16:02.208Z,43.33
2018-03-07T03:18:29.888Z,40.07
2018-03-07T03:20:57.201Z,39.50
2018-03-07T03:23:24.525Z,33.77
2018-03-07T03:25:51.813Z,37.03
2018-03-07T03:28:19.147Z,42.90
2018-03-07T03:30:46.458Z,39.13
2018-03-07T03:33:13.763Z,41.03
2018-03-07T03:35:41.049Z,36.57
2018-03-07T03:38:10.757Z,29.03
2018-03-07T03:40:38.454Z,41.33
2018-03-07T03:43:05.737Z,35.33
2018-03-07T03:45:33.025Z,43.27
2018-03-07T03:48:00.352Z,37.27
2018-03-07T03:50:27.622Z,32.67
2018-03-07T03:52:55.315Z,39.57
2018-03-07T03:55:22.621Z,38.60
2018-03-07T03:57:55.416Z,43.07
2018-03-07T04:00:22.698Z,34.57
2018-03-07T04:02:49.975Z,30.17
2018-03-07T04:05:17.305Z,30.87
2018-03-07T04:07:44.633Z,36.27
2018-03-07T04:10:12.329Z,33.60
2018-03-07T04:12:39.640Z,33.47
2018-03-07T04:15:06.944Z,34.53
2018-03-07T04:17:34.320Z,34.90
2018-03-07T04:20:01.605Z,36.83
2018-03-07T04:22:28.925Z,32.00
2018-03-07T04:24:56.240Z,38.90
2018-03-07T04:27:23.957Z,43.20
2018-03-07T04:29:51.568Z,34.60
2018-03-07T04:32:19.274Z,32.87
2018-03-07T04:34:46.586Z,35.50
2018-03-07T04:37:13.882Z,38.37
2018-03-07T04:39:41.249Z,32.53
2018-03-07T04:42:08.554Z,34.97
2018-03-07T04:44:36.793Z,29.90
2018-03-07T04:47:14.483Z,33.43
2018-03-07T04:49:41.787Z,35.43
2018-03-07T04:52:09.126Z,33.10
2018-03-07T04:54:36.835Z,37.93
2018-03-07T04:57:04.128Z,38.17
2018-03-07T04:59:31.408Z,29.87
2018-03-07T05:01:58.708Z,35.67
2018-03-07T05:04:25.979Z,40.20
2018-03-07T05:06:53.289Z,40.03
2018-03-07T05:09:20.570Z,37.23
2018-03-07T05:11:47.847Z,38.67
2018-03-07T05:14:15.639Z,32.77
2018-03-07T05:16:42.942Z,31.53
2018-03-07T05:19:10.232Z,34.77
2018-03-07T05:21:37.949Z,36.70
2018-03-07T05:24:05.260Z,37.40
2018-03-07T05:26:32.940Z,32.40
2018-03-07T05:29:00.258Z,38.60
2018-03-07T05:31:27.573Z,41.33
2018-03-07T05:33:55.261Z,42.97
2018-03-07T05:36:22.618Z,30.93
2018-03-07T05:38:54.550Z,32.57
2018-03-07T05:41:21.862Z,45.60
2018-03-07T05:43:49.599Z,38.63
2018-03-07T05:46:16.885Z,39.97
2018-03-07T05:48:44.556Z,33.63
2018-03-07T05:51:11.903Z,36.57
2018-03-07T05:53:39.612Z,36.23
2018-03-07T05:56:06.926Z,40.80
2018-03-07T05:58:44.175Z,35.50
2018-03-07T06:01:11.450Z,32.23
2018-03-07T06:03:39.587Z,36.03
2018-03-07T06:06:06.872Z,36.37
2018-03-07T06:08:34.578Z,44.07
2018-03-07T06:11:01.885Z,47.90
2018-03-07T06:13:29.610Z,45.53
2018-03-07T06:15:56.924Z,49.23
2018-03-07T06:18:29.423Z,42.83
2018-03-07T06:21:11.628Z,40.97
2018-03-07T06:23:38.911Z,40.50
2018-03-07T06:26:18.586Z,39.67
2018-03-07T06:28:50.772Z,41.13
2018-03-07T06:31:18.685Z,44.67
2018-03-07T06:33:45.950Z,47.43
2018-03-07T06:36:13.228Z,35.97
2018-03-07T06:38:40.952Z,40.40
2018-03-07T06:41:08.264Z,51.73
2018-03-07T06:43:35.529Z,38.00
2018-03-07T06:46:02.937Z,39.87
2018-03-07T06:48:30.336Z,42.77
2018-03-07T06:50:57.636Z,35.80
2018-03-07T06:53:24.950Z,37.53
2018-03-07T06:55:52.283Z,34.33
2018-03-07T06:58:19.978Z,33.70
2018-03-07T07:00:47.256Z,36.57
2018-03-07T07:03:14.611Z,36.70
2018-03-07T07:05:41.956Z,43.03
2018-03-07T07:08:09.419Z,40.90
2018-03-07T07:10:36.831Z,39.13
2018-03-07T07:13:04.159Z,41.07
2018-03-07T07:15:31.475Z,36.63
2018-03-07T07:17:58.828Z,40.57
2018-03-07T07:20:26.113Z,37.77
2018-03-07T07:22:53.598Z,38.47
2018-03-07T07:25:21.278Z,37.93
2018-03-07T07:27:48.560Z,41.70
2018-03-07T07:30:15.852Z,39.83
2018-03-07T07:32:43.144Z,30.33
2018-03-07T07:35:10.456Z,32.87
2018-03-07T07:37:37.734Z,42.80
2018-03-07T07:40:05.432Z,32.97
2018-03-07T07:42:32.726Z,37.03
2018-03-07T07:44:59.994Z,40.77
2018-03-07T07:47:27.682Z,37.10
2018-03-07T07:49:55.007Z,30.60
2018-03-07T07:52:22.365Z,40.83
2018-03-07T07:54:50.040Z,37.10
2018-03-07T07:57:17.329Z,42.23
2018-03-07T07:59:44.621Z,39.80
2018-03-07T08:02:11.950Z,70.67
2018-03-07T08:04:39.272Z,37.03
2018-03-07T08:07:06.571Z,47.83
2018-03-07T08:09:33.873Z,46.37
2018-03-07T08:12:01.148Z,49.50
2018-03-07T08:14:28.468Z,43.33
2018-03-07T08:16:56.148Z,41.27
2018-03-07T08:19:23.454Z,47.10
2018-03-07T08:21:50.768Z,44.23
2018-03-07T08:27:23.480Z,48.57
2018-03-07T08:29:50.774Z,36.33
2018-03-07T08:32:18.111Z,50.27
2018-03-07T08:34:45.382Z,41.53
2018-03-07T08:37:12.694Z,46.87
2018-03-07T08:39:39.985Z,49.67
2018-03-07T08:42:07.252Z,54.33
2018-03-07T08:44:35.013Z,51.23
2018-03-07T08:47:02.298Z,48.00
2018-03-07T08:49:29.562Z,55.13
2018-03-07T08:51:56.868Z,46.67
2018-03-07T08:54:24.160Z,43.90
2018-03-07T08:56:51.451Z,50.23
2018-03-07T08:59:18.773Z,46.40
2018-03-07T09:01:46.069Z,44.20
2018-03-07T09:04:13.430Z,44.23
2018-03-07T09:06:40.689Z,46.37
2018-03-07T09:09:08.006Z,42.63
2018-03-07T09:11:35.274Z,41.43
2018-03-07T09:14:02.583Z,39.00
2018-03-07T09:16:29.850Z,44.17
2018-03-07T09:18:57.162Z,42.57
2018-03-07T09:24:15.315Z,54.90
2018-03-07T09:26:42.611Z,47.30
2018-03-07T09:29:09.885Z,46.40
2018-03-07T09:31:42.288Z,50.23
2018-03-07T09:34:09.573Z,45.37
2018-03-07T09:36:37.290Z,53.83
2018-03-07T09:39:04.610Z,47.70
2018-03-07T09:41:31.890Z,47.57
2018-03-07T09:43:59.273Z,47.90
2018-03-07T09:46:26.558Z,51.47
2018-03-07T09:48:53.850Z,48.43
2018-03-07T09:51:21.132Z,49.80
2018-03-07T09:53:48.432Z,56.73
2018-03-07T09:56:15.731Z,54.73
2018-03-07T09:58:43.052Z,59.70
2018-03-07T10:01:10.333Z,58.67
2018-03-07T10:03:37.629Z,59.43
2018-03-07T10:06:05.329Z,52.60
2018-03-07T10:08:32.722Z,66.87
2018-03-07T10:11:00.020Z,70.77
2018-03-07T10:13:27.299Z,81.37
2018-03-07T10:15:54.596Z,71.47
2018-03-07T10:18:22.317Z,57.73
2018-03-07T10:20:49.613Z,72.33
2018-03-07T10:23:17.325Z,60.37
2018-03-07T10:25:44.611Z,60.73
2018-03-07T10:28:11.904Z,76.10
2018-03-07T10:30:39.212Z,60.03
2018-03-07T10:33:12.272Z,63.07
2018-03-07T10:35:39.570Z,58.93
2018-03-07T10:38:06.841Z,49.20
2018-03-07T10:40:34.549Z,67.80
2018-03-07T10:43:01.857Z,60.57
2018-03-07T10:45:29.527Z,58.30
2018-03-07T10:47:56.868Z,56.70
2018-03-07T10:50:24.607Z,55.90
2018-03-07T10:52:51.885Z,57.17
2018-03-07T10:55:19.624Z,51.07
2018-03-07T10:57:46.903Z,62.80
2018-03-07T11:00:14.574Z,61.53
2018-03-07T11:02:42.327Z,69.47
2018-03-07T11:05:09.635Z,79.00
2018-03-07T11:07:37.846Z,66.07
2018-03-07T11:10:05.186Z,61.30
2018-03-07T11:12:32.487Z,58.40
2018-03-07T11:14:59.773Z,87.23
2018-03-07T11:17:27.072Z,77.97
2018-03-07T11:19:54.741Z,68.90
2018-03-07T11:25:13.165Z,75.90
2018-03-07T11:27:40.446Z,80.00
2018-03-07T11:30:07.763Z,72.33
2018-03-07T11:35:07.061Z,64.53
2018-03-07T11:37:34.417Z,75.63
2018-03-07T11:40:01.705Z,76.13
2018-03-07T11:42:28.989Z,70.00
2018-03-07T11:44:56.321Z,81.73
2018-03-07T11:47:23.586Z,78.33
2018-03-07T11:49:50.881Z,74.63
2018-03-07T11:52:18.170Z,72.40
2018-03-07T11:54:45.508Z,64.87
2018-03-07T11:57:12.813Z,91.30
2018-03-07T11:59:40.117Z,67.50
2018-03-07T12:02:07.429Z,69.53
2018-03-07T12:04:35.127Z,83.03
2018-03-07T12:07:02.430Z,80.10
2018-03-07T12:09:29.727Z,96.33
2018-03-07T12:14:47.280Z,92.27
2018-03-07T12:17:14.643Z,94.63
2018-03-07T12:19:41.970Z,87.27
2018-03-07T12:22:09.374Z,80.87
2018-03-07T12:24:36.793Z,73.60
2018-03-07T12:27:04.117Z,72.77
2018-03-07T12:29:31.817Z,76.10
2018-03-07T12:31:59.241Z,89.63
2018-03-07T12:34:26.972Z,81.10
2018-03-07T12:36:54.308Z,68.23
2018-03-07T12:39:21.678Z,79.93
2018-03-07T12:41:49.059Z,78.33
2018-03-07T12:44:16.472Z,72.47
2018-03-07T12:46:43.879Z,70.03
2018-03-07T12:49:11.598Z,69.73
2018-03-07T12:51:38.922Z,60.73
2018-03-07T12:54:06.271Z,63.13
2018-03-07T12:56:33.615Z,74.53
2018-03-07T12:59:01.298Z,62.10
2018-03-07T13:01:28.620Z,56.57
2018-03-07T13:03:56.010Z,59.80
2018-03-07T13:06:23.296Z,61.37
2018-03-07T13:08:50.585Z,65.03
2018-03-07T13:11:18.285Z,64.63
2018-03-07T13:13:47.662Z,60.87
2018-03-07T13:16:14.961Z,60.57
2018-03-07T13:18:42.262Z,80.93
2018-03-07T13:21:09.965Z,62.70
2018-03-07T13:23:37.283Z,68.10
2018-03-07T13:26:05.031Z,72.83
2018-03-07T13:28:32.329Z,74.33
2018-03-07T13:30:59.621Z,63.40
2018-03-07T13:33:26.939Z,68.50
2018-03-07T13:35:54.240Z,72.50
2018-03-07T13:38:21.534Z,58.90
2018-03-07T13:40:48.877Z,54.67
2018-03-07T13:43:23.869Z,53.60
2018-03-07T13:45:51.194Z,59.00
2018-03-07T13:48:18.545Z,68.47
2018-03-07T13:50:45.847Z,65.50
2018-03-07T13:53:13.141Z,64.30
2018-03-07T13:58:30.925Z,60.47
2018-03-07T14:00:58.208Z,72.93
2018-03-07T14:03:25.492Z,77.73
2018-03-07T14:05:52.830Z,63.70
2018-03-07T14:08:20.548Z,60.73
2018-03-07T14:10:47.862Z,61.67
2018-03-07T14:13:15.556Z,62.23
2018-03-07T14:15:42.842Z,58.50
2018-03-07T14:18:10.115Z,65.87
2018-03-07T14:20:37.841Z,61.20
2018-03-07T14:25:55.442Z,63.87
2018-03-07T14:28:23.138Z,54.20
2018-03-07T14:30:50.443Z,62.87
2018-03-07T14:33:17.743Z,63.87
2018-03-07T14:35:45.059Z,54.73
2018-03-07T14:38:12.358Z,63.73
2018-03-07T14:40:39.669Z,57.37
2018-03-07T14:43:07.373Z,59.03
2018-03-07T14:45:34.731Z,59.33
2018-03-07T14:48:02.051Z,55.67
2018-03-07T14:50:29.408Z,60.50
2018-03-07T14:52:56.730Z,59.40
2018-03-07T14:55:24.002Z,64.70
2018-03-07T14:57:53.713Z,64.67
2018-03-07T15:00:21.008Z,62.97
2018-03-07T15:02:48.375Z,70.40
2018-03-07T15:05:15.672Z,63.33
2018-03-07T15:07:43.353Z,55.00
2018-03-07T15:10:30.060Z,67.27
2018-03-07T15:12:57.725Z,67.87
2018-03-07T15:15:25.014Z,66.63
2018-03-07T15:17:52.294Z,60.87
2018-03-07T15:20:19.590Z,62.83
2018-03-07T15:22:47.864Z,63.83
2018-03-07T15:25:15.219Z,63.43
2018-03-07T15:27:44.495Z,63.00
2018-03-07T15:30:16.535Z,74.37
2018-03-07T15:32:45.272Z,58.87
2018-03-07T15:35:13.334Z,59.23
2018-03-07T15:37:41.573Z,59.77
2018-03-07T15:40:12.736Z,52.27
2018-03-07T15:42:40.035Z,55.33
2018-03-07T15:45:07.337Z,60.27
2018-03-07T15:47:34.636Z,62.20
2018-03-07T15:50:01.930Z,53.93
2018-03-07T15:52:29.225Z,54.57
2018-03-07T15:54:56.566Z,56.23
2018-03-07T15:57:24.257Z,55.93
2018-03-07T15:59:51.550Z,63.13
2018-03-07T16:02:18.887Z,57.70
2018-03-07T16:05:03.405Z,63.47
2018-03-07T16:07:31.106Z,50.40
2018-03-07T16:09:58.445Z,55.53
2018-03-07T16:12:25.728Z,55.67
2018-03-07T16:14:53.071Z,53.73
2018-03-07T16:17:20.370Z,55.37
2018-03-07T16:19:48.053Z,56.57
2018-03-07T16:22:15.380Z,49.90
2018-03-07T16:24:42.689Z,49.73
2018-03-07T16:27:09.967Z,54.10
2018-03-07T16:29:37.315Z,54.80
2018-03-07T16:32:07.432Z,54.27
2018-03-07T16:37:25.333Z,60.33
2018-03-07T16:39:53.003Z,47.33
2018-03-07T16:45:15.374Z,57.90
2018-03-07T16:47:42.662Z,60.30
2018-03-07T16:50:10.846Z,47.60
2018-03-07T16:52:38.156Z,53.47
2018-03-07T16:55:05.449Z,57.63
2018-03-07T16:57:32.738Z,52.30
2018-03-07T17:05:47.949Z,54.13
2018-03-07T17:08:17.677Z,54.40
2018-03-07T17:10:44.975Z,59.20
2018-03-07T17:13:12.442Z,65.60
2018-03-07T17:15:41.877Z,60.83
2018-03-07T17:18:13.123Z,54.10
2018-03-07T17:20:40.929Z,52.13
2018-03-07T17:23:08.440Z,57.30
2018-03-07T17:25:35.835Z,54.40
2018-03-07T17:28:03.167Z,56.10
2018-03-07T17:30:33.479Z,53.63
2018-03-07T17:33:01.255Z,51.80
2018-03-07T17:35:28.613Z,45.00
2018-03-07T17:37:55.979Z,52.67
2018-03-07T17:43:34.442Z,46.77
2018-03-07T17:46:09.912Z,54.47
2018-03-07T17:48:37.313Z,53.27
2018-03-07T17:51:04.621Z,55.47
2018-03-07T17:53:32.009Z,52.53
2018-03-07T17:55:59.824Z,52.57
2018-03-07T17:58:32.297Z,51.57
2018-03-07T18:00:59.603Z,54.53
2018-03-07T18:06:17.614Z,58.27
2018-03-07T18:08:45.063Z,55.10
2018-03-07T18:11:12.547Z,55.77
2018-03-07T18:13:40.320Z,48.40
2018-03-07T18:16:08.605Z,60.77
2018-03-07T18:18:35.984Z,61.03
2018-03-07T18:21:03.301Z,59.73
2018-03-07T18:23:37.797Z,59.17
2018-03-07T18:26:05.118Z,57.80
2018-03-07T18:28:32.414Z,56.63
2018-03-07T18:30:59.717Z,51.07
2018-03-07T18:33:27.450Z,53.33
2018-03-07T18:35:54.722Z,54.73
2018-03-07T18:41:20.220Z,55.43
2018-03-07T18:43:47.556Z,48.17
2018-03-07T18:46:18.628Z,51.67
2018-03-07T18:48:45.902Z,49.30
2018-03-07T18:51:25.038Z,54.97
2018-03-07T18:53:52.726Z,51.40
2018-03-07T18:56:20.030Z,47.43
2018-03-07T18:58:57.556Z,45.80
2018-03-07T19:01:25.305Z,52.07
2018-03-07T19:03:52.625Z,47.83
2018-03-07T19:06:19.868Z,42.23
2018-03-07T19:08:47.209Z,42.83
2018-03-07T19:11:14.500Z,46.87
2018-03-07T19:13:41.818Z,50.00
2018-03-07T19:16:09.109Z,47.03
2018-03-07T19:18:37.312Z,45.97
2018-03-07T19:21:05.036Z,45.23
2018-03-07T19:23:32.328Z,49.00
2018-03-07T19:26:00.015Z,49.93
2018-03-07T19:28:27.337Z,44.87
2018-03-07T19:31:03.602Z,48.73
2018-03-07T19:33:31.319Z,50.20
2018-03-07T19:35:58.609Z,44.00
2018-03-07T19:38:44.901Z,41.87
2018-03-07T19:44:06.182Z,43.15
2018-03-07T19:46:33.938Z,42.23
2018-03-07T19:49:01.282Z,41.00
2018-03-07T19:51:36.085Z,41.60
2018-03-07T19:54:07.314Z,41.83
2018-03-07T19:56:34.697Z,40.03
2018-03-07T19:59:02.018Z,44.40
2018-03-07T20:01:42.536Z,42.77
2018-03-07T20:04:22.616Z,40.83
2018-03-07T20:06:49.985Z,41.23
2018-03-07T20:09:30.330Z,40.23
2018-03-07T20:11:57.692Z,43.97
2018-03-07T20:14:25.033Z,51.67
2018-03-07T20:16:52.342Z,48.93
2018-03-07T20:19:19.709Z,42.20
2018-03-07T20:22:05.692Z,41.87
2018-03-07T20:24:33.054Z,49.43
2018-03-07T20:27:03.339Z,43.93
2018-03-07T20:29:47.057Z,38.57
2018-03-07T20:32:15.379Z,41.53
2018-03-07T20:34:42.809Z,44.77
2018-03-07T20:37:10.103Z,43.33
2018-03-07T20:39:42.703Z,38.23
2018-03-07T20:42:10.379Z,45.90
2018-03-07T20:44:37.749Z,41.47
2018-03-07T20:47:05.046Z,39.70
2018-03-07T20:49:32.750Z,37.17
2018-03-07T20:52:21.182Z,37.87
2018-03-07T20:54:48.917Z,37.90
2018-03-07T20:57:16.244Z,39.07
2018-03-07T20:59:54.028Z,39.80
2018-03-07T21:02:21.343Z,41.20
2018-03-07T21:04:49.038Z,38.10
2018-03-07T21:07:16.452Z,43.97
2018-03-07T21:09:54.453Z,48.93
2018-03-07T21:12:21.760Z,39.97
2018-03-07T21:14:49.061Z,37.10
2018-03-07T21:17:16.470Z,38.17
2018-03-07T21:19:43.813Z,41.83
2018-03-07T21:22:11.218Z,32.97
2018-03-07T21:24:38.601Z,38.50
2018-03-07T21:27:06.349Z,40.97
2018-03-07T21:29:33.669Z,41.17
2018-03-07T21:32:00.992Z,41.10
2018-03-07T21:34:28.428Z,37.27
2018-03-07T21:36:56.342Z,50.10
2018-03-07T21:39:23.678Z,64.03
2018-03-07T21:41:51.001Z,39.20
2018-03-07T21:44:18.390Z,58.70
2018-03-07T21:46:45.753Z,38.87
2018-03-07T21:49:13.335Z,37.30
2018-03-07T21:51:40.649Z,40.90
2018-03-07T21:54:09.032Z,43.67
2018-03-07T21:56:36.983Z,35.17
2018-03-07T21:59:04.415Z,38.53
2018-03-07T22:01:32.009Z,41.77
2018-03-07T22:03:59.545Z,42.93
2018-03-07T22:06:27.120Z,37.03
2018-03-07T22:08:54.845Z,37.20
2018-03-07T22:11:22.844Z,38.53
2018-03-07T22:13:55.493Z,35.10
2018-03-07T22:16:39.657Z,32.23
2018-03-07T22:19:07.221Z,34.00
2018-03-07T22:21:41.750Z,38.63
2018-03-07T22:24:18.160Z,35.63
2018-03-07T22:29:36.277Z,31.73
2018-03-07T22:32:04.525Z,35.90
2018-03-07T22:34:47.947Z,35.43
2018-03-07T22:37:15.575Z,39.50
2018-03-07T22:39:43.398Z,33.20
2018-03-07T22:42:11.193Z,37.77
2018-03-07T22:44:41.979Z,36.20
2018-03-07T22:50:20.656Z,38.43
2018-03-07T22:52:51.207Z,37.40
2018-03-07T22:58:16.791Z,42.23
2018-03-07T23:00:48.138Z,41.17
2018-03-07T23:03:15.900Z,42.63
2018-03-07T23:05:43.695Z,39.90
2018-03-07T23:08:11.059Z,36.00
2018-03-07T23:10:38.466Z,30.27
2018-03-07T23:13:05.834Z,37.30
2018-03-07T23:15:33.272Z,31.60
2018-03-07T23:18:00.633Z,31.97
2018-03-07T23:20:28.450Z,30.00
2018-03-07T23:22:55.785Z,30.03
2018-03-07T23:36:44.587Z,33.90
2018-03-07T23:39:12.367Z,27.17
2018-03-07T23:41:39.772Z,28.93
2018-03-07T23:44:07.168Z,26.47
2018-03-07T23:46:34.989Z,32.23
2018-03-07T23:49:02.441Z,33.90
2018-03-07T23:51:29.795Z,33.53
2018-03-07T23:53:57.144Z,38.60
2018-03-07T23:56:30.365Z,31.53
